Terminal Aerodrome Forecast
Issued by NWS Cleveland, OH

Home | Current Version | Previous Version | Graphics & Text | Print | Product List | Glossary On
Versions: 1 2 3 4 5 6 7 8 9 10 11 12 13
000
FTUS41 KCLE 281700
TAFMFD
TAF
KMFD 281738Z 2818/2918 21018G28KT P6SM -SHRA BKN035 OVC060
      TEMPO 2818/2820 4SM SHRA BKN025
     FM282000 23012G22KT P6SM VCSH BKN028 OVC080
     FM282200 25010KT P6SM SCT025 OVC200
     FM291500 24010KT P6SM BKN030=

USA.gov is the U.S. government's official web portal to all federal, state and local government web resources and services.